createdAt,value
2022-09-12T00:01:43.957Z,14.98
2022-09-12T00:04:12.491Z,14.96
2022-09-12T00:06:40.785Z,14.94
2022-09-12T00:09:12.412Z,14.93
2022-09-12T00:11:44.049Z,14.93
2022-09-12T00:14:16.403Z,14.92
2022-09-12T00:16:44.853Z,14.91
2022-09-12T00:19:13.226Z,14.90
2022-09-12T00:21:42.113Z,14.90
2022-09-12T00:24:11.721Z,14.91
2022-09-12T00:26:40.653Z,14.90
2022-09-12T00:29:21.400Z,14.91
2022-09-12T00:31:49.871Z,14.89
2022-09-12T00:34:18.238Z,14.88
2022-09-12T00:36:46.723Z,14.89
2022-09-12T00:39:17.105Z,14.90
2022-09-12T00:41:46.286Z,14.89
2022-09-12T00:44:23.653Z,14.90
2022-09-12T00:46:59.835Z,14.91
2022-09-12T00:49:46.191Z,14.92
2022-09-12T00:52:23.891Z,14.92
2022-09-12T00:55:21.246Z,14.93
2022-09-12T00:58:00.327Z,14.92
2022-09-12T01:00:30.603Z,14.92
2022-09-12T01:03:04.098Z,14.92
2022-09-12T01:05:36.164Z,14.90
2022-09-12T01:08:05.365Z,14.88
2022-09-12T01:10:37.800Z,14.87
2022-09-12T01:13:09.250Z,14.89
2022-09-12T01:15:39.667Z,14.88
2022-09-12T01:18:11.267Z,14.86
2022-09-12T01:20:52.445Z,14.84
2022-09-12T01:23:48.575Z,14.82
2022-09-12T01:26:48.841Z,14.79
2022-09-12T01:29:39.096Z,14.77
2022-09-12T01:32:39.113Z,14.76
2022-09-12T01:35:16.915Z,14.74
2022-09-12T01:38:13.758Z,14.73
2022-09-12T01:41:02.515Z,14.72
2022-09-12T01:43:32.138Z,14.71
2022-09-12T01:46:17.847Z,14.71
2022-09-12T01:48:56.135Z,14.70
2022-09-12T01:51:42.610Z,14.70
2022-09-12T01:54:21.053Z,14.70
2022-09-12T01:56:52.469Z,14.69
2022-09-12T01:59:30.221Z,14.68
2022-09-12T02:02:01.560Z,14.68
2022-09-12T02:04:45.264Z,14.67
2022-09-12T02:07:19.995Z,14.67
2022-09-12T02:09:57.432Z,14.67
2022-09-12T02:12:31.731Z,14.66
2022-09-12T02:15:05.404Z,14.65
2022-09-12T02:17:39.420Z,14.65
2022-09-12T02:20:37.455Z,14.63
2022-09-12T02:23:12.362Z,14.62
2022-09-12T02:25:45.821Z,14.60
2022-09-12T02:28:18.802Z,14.58
2022-09-12T02:31:13.097Z,14.56
2022-09-12T02:33:56.826Z,14.53
2022-09-12T02:36:38.004Z,14.51
2022-09-12T02:39:06.643Z,14.50
2022-09-12T02:41:35.551Z,14.48
2022-09-12T02:44:05.210Z,14.45
2022-09-12T02:46:39.343Z,14.44
2022-09-12T02:49:09.487Z,14.42
2022-09-12T02:51:38.585Z,14.41
2022-09-12T02:54:07.715Z,14.39
2022-09-12T02:56:36.637Z,14.38
2022-09-12T02:59:08.310Z,14.37
2022-09-12T03:02:08.119Z,14.38
2022-09-12T03:04:55.504Z,14.38
2022-09-12T03:07:43.044Z,14.38
2022-09-12T03:10:33.221Z,14.40
2022-09-12T03:13:32.623Z,14.40
2022-09-12T03:16:15.927Z,14.40
2022-09-12T03:19:03.480Z,14.40
2022-09-12T03:21:45.696Z,14.40
2022-09-12T03:24:24.634Z,14.41
2022-09-12T03:26:59.514Z,14.43
2022-09-12T03:29:29.719Z,14.44
2022-09-12T03:31:59.415Z,14.45
2022-09-12T03:34:28.164Z,14.46
2022-09-12T03:36:57.058Z,14.46
2022-09-12T03:39:27.031Z,14.47
2022-09-12T03:41:56.066Z,14.48
2022-09-12T03:44:25.356Z,14.49
2022-09-12T03:46:54.246Z,14.49
2022-09-12T03:49:22.453Z,14.50
2022-09-12T03:51:51.010Z,14.49
2022-09-12T03:54:19.287Z,14.48
2022-09-12T03:56:47.477Z,14.47
2022-09-12T03:59:15.858Z,14.46
2022-09-12T04:01:44.311Z,14.45
2022-09-12T04:04:12.514Z,14.44
2022-09-12T04:06:41.748Z,14.42
2022-09-12T04:09:10.284Z,14.39
2022-09-12T04:11:38.492Z,14.36
2022-09-12T04:14:07.135Z,14.33
2022-09-12T04:16:35.690Z,14.30
2022-09-12T04:19:04.087Z,14.27
2022-09-12T04:21:32.699Z,14.26
2022-09-12T04:24:01.152Z,14.26
2022-09-12T04:26:30.035Z,14.26
2022-09-12T04:28:58.672Z,14.27
2022-09-12T04:31:27.390Z,14.26
2022-09-12T04:34:01.327Z,14.25
2022-09-12T04:36:29.993Z,14.25
2022-09-12T04:38:58.902Z,14.24
2022-09-12T04:41:33.600Z,14.24
2022-09-12T04:44:05.499Z,14.24
2022-09-12T04:46:37.046Z,14.24
2022-09-12T04:49:05.791Z,14.23
2022-09-12T04:51:36.709Z,14.22
2022-09-12T04:54:13.022Z,14.23
2022-09-12T04:56:44.111Z,14.24
2022-09-12T04:59:15.866Z,14.25
2022-09-12T05:01:44.410Z,14.26
2022-09-12T05:04:14.176Z,14.27
2022-09-12T05:06:43.628Z,14.28
2022-09-12T05:09:14.249Z,14.31
2022-09-12T05:12:04.166Z,14.33
2022-09-12T05:14:34.394Z,14.37
2022-09-12T05:17:04.941Z,14.42
2022-09-12T05:19:33.683Z,14.48
2022-09-12T05:22:02.669Z,14.54
2022-09-12T05:24:30.910Z,14.61
2022-09-12T05:26:59.425Z,14.71
2022-09-12T05:29:27.803Z,14.79
2022-09-12T05:31:55.995Z,14.85
2022-09-12T05:34:24.870Z,14.90
2022-09-12T05:36:53.649Z,14.96
2022-09-12T05:39:22.650Z,15.03
2022-09-12T05:41:51.026Z,15.10
2022-09-12T05:44:20.183Z,15.17
2022-09-12T05:46:51.476Z,15.20
2022-09-12T05:49:21.591Z,15.24
2022-09-12T05:51:50.990Z,15.30
2022-09-12T05:54:20.796Z,15.37
2022-09-12T05:56:49.490Z,15.44
2022-09-12T05:59:20.373Z,15.53
2022-09-12T06:01:49.326Z,15.62
2022-09-12T06:04:19.026Z,15.70
2022-09-12T06:06:48.925Z,15.78
2022-09-12T06:09:18.101Z,15.86
2022-09-12T06:11:46.715Z,15.95
2022-09-12T06:14:17.900Z,16.02
2022-09-12T06:16:47.854Z,16.10
2022-09-12T06:19:19.216Z,16.18
2022-09-12T06:21:49.956Z,16.24
2022-09-12T06:24:19.368Z,16.29
2022-09-12T06:26:48.975Z,16.32
2022-09-12T06:29:17.557Z,16.33
2022-09-12T06:31:46.143Z,16.36
2022-09-12T06:34:15.825Z,16.39
2022-09-12T06:36:47.206Z,16.41
2022-09-12T06:39:26.022Z,16.40
2022-09-12T06:41:54.800Z,16.12
2022-09-12T06:44:35.075Z,15.81
2022-09-12T06:47:03.546Z,15.59
2022-09-12T06:49:31.822Z,15.42
2022-09-12T06:52:03.181Z,15.35
2022-09-12T06:54:48.022Z,15.56
2022-09-12T06:57:19.957Z,15.82
2022-09-12T06:59:48.278Z,16.02
2022-09-12T07:02:16.882Z,16.19
2022-09-12T07:04:46.614Z,16.32
2022-09-12T07:07:26.703Z,16.47
2022-09-12T07:10:22.449Z,16.59
2022-09-12T07:13:01.066Z,16.73
2022-09-12T07:15:38.949Z,16.82
2022-09-12T07:18:11.018Z,16.65
2022-09-12T07:20:46.455Z,16.38
2022-09-12T07:23:26.322Z,16.16
2022-09-12T07:26:01.295Z,16.02
2022-09-12T07:28:32.029Z,15.91
2022-09-12T07:31:08.926Z,15.83
2022-09-12T07:33:38.558Z,15.78
2022-09-12T07:36:12.338Z,15.73
2022-09-12T07:38:41.688Z,15.76
2022-09-12T07:41:14.739Z,16.08
2022-09-12T07:43:43.960Z,16.42
2022-09-12T07:46:12.474Z,16.68
2022-09-12T07:48:41.233Z,16.90
2022-09-12T07:51:11.248Z,17.08
2022-09-12T07:53:41.777Z,16.99
2022-09-12T07:56:11.495Z,16.77
2022-09-12T07:58:41.930Z,16.60
2022-09-12T08:01:13.113Z,16.50
2022-09-12T08:03:43.149Z,16.44
2022-09-12T08:06:14.645Z,16.40
2022-09-12T08:08:43.788Z,16.38
2022-09-12T08:11:14.712Z,16.38
2022-09-12T08:13:44.329Z,16.43
2022-09-12T08:16:14.655Z,16.48
2022-09-12T08:18:42.867Z,16.57
2022-09-12T08:21:15.756Z,16.66
2022-09-12T08:23:45.429Z,16.77
2022-09-12T08:26:14.146Z,16.90
2022-09-12T08:28:45.809Z,16.97
2022-09-12T08:31:17.278Z,17.03
2022-09-12T08:33:46.038Z,17.08
2022-09-12T08:36:28.314Z,17.11
2022-09-12T08:39:05.176Z,17.16
2022-09-12T08:41:39.911Z,17.21
2022-09-12T08:44:09.525Z,17.25
2022-09-12T08:47:00.714Z,17.30
2022-09-12T08:49:48.897Z,17.41
2022-09-12T08:52:35.727Z,17.56
2022-09-12T08:55:07.156Z,17.71
2022-09-12T08:57:35.431Z,17.84
2022-09-12T09:00:07.106Z,17.95
